Time;durP1;ratioP1;P1;durP2;ratioP2;P2;SDS_P1;SDS_P2;PMS_P1;PMS_P2;Temp;Humidity;BMP_temperature;BMP_pressure;BME280_temperature;BME280_humidity;BME280_pressure;Samples;Min_cycle;Max_cycle;Signal;HPM_P1;HPM_P2
2022/10/30 00:03:34;;;;;;;5.80;2.40;;;;;;;15.52;100.00;98743.47;15271480;19;20349;-60
2022/10/30 00:09:08;;;;;;;6.50;2.30;;;;;;;15.54;100.00;98730.53;15262630;19;20036;-58
2022/10/30 00:14:34;;;;;;;9.50;2.45;;;;;;;15.56;100.00;98729.31;15268775;19;20014;-57
2022/10/30 00:19:58;;;;;;;7.35;2.50;;;;;;;15.66;100.00;98723.63;15270559;19;20069;-58
2022/10/30 00:25:25;;;;;;;8.05;2.40;;;;;;;15.68;100.00;98727.00;15269273;19;20021;-57
2022/10/30 00:30:50;;;;;;;6.35;2.22;;;;;;;15.70;100.00;98714.03;15265645;19;20019;-59
2022/10/30 00:36:15;;;;;;;7.30;2.30;;;;;;;15.74;100.00;98705.53;15264385;19;20468;-56
2022/10/30 00:41:42;;;;;;;7.05;2.50;;;;;;;15.77;100.00;98697.00;15261747;19;20025;-59
2022/10/30 00:47:13;;;;;;;6.20;2.65;;;;;;;15.83;100.00;98701.69;15265538;19;20040;-58
2022/10/30 00:52:42;;;;;;;5.83;2.30;;;;;;;15.82;100.00;98703.56;15264970;19;20015;-60
2022/10/30 00:58:12;;;;;;;7.63;2.50;;;;;;;15.85;100.00;98688.78;15267177;19;20148;-58
2022/10/30 01:03:38;;;;;;;8.05;2.30;;;;;;;15.79;100.00;98684.91;15266602;19;20022;-58
2022/10/30 01:09:04;;;;;;;7.03;2.28;;;;;;;15.71;100.00;98685.03;15261013;19;20427;-58
2022/10/30 01:14:32;;;;;;;8.63;2.65;;;;;;;15.72;100.00;98687.53;15262592;19;20018;-58
2022/10/30 01:20:17;;;;;;;8.07;2.85;;;;;;;15.72;100.00;98689.44;15264334;19;20010;-58
2022/10/30 01:25:56;;;;;;;8.00;2.22;;;;;;;15.69;100.00;98685.22;15264429;19;20018;-59
2022/10/30 01:31:39;;;;;;;5.65;2.20;;;;;;;15.66;100.00;98679.31;15263424;19;20014;-59
2022/10/30 01:37:09;;;;;;;8.65;2.60;;;;;;;15.74;100.00;98675.66;15263279;19;20036;-60
2022/10/30 01:42:50;;;;;;;6.63;2.20;;;;;;;15.77;100.00;98665.25;15260521;19;20422;-59
2022/10/30 01:48:46;;;;;;;6.95;2.35;;;;;;;15.84;100.00;98665.34;15264061;19;20028;-60
2022/10/30 01:54:22;;;;;;;6.45;2.35;;;;;;;15.89;100.00;98657.50;15279266;19;20017;-58
2022/10/30 01:59:50;;;;;;;6.70;2.30;;;;;;;15.95;100.00;98653.19;15271912;19;20014;-57
2022/10/30 02:05:31;;;;;;;6.63;2.30;;;;;;;15.97;100.00;98645.69;15279247;19;20039;-58
2022/10/30 02:11:06;;;;;;;6.60;2.15;;;;;;;15.97;100.00;98642.97;15273338;19;20350;-59
2022/10/30 02:16:31;;;;;;;5.80;2.30;;;;;;;15.96;100.00;98638.56;15270309;19;20107;-58
2022/10/30 02:21:59;;;;;;;6.43;2.30;;;;;;;15.92;100.00;98648.97;15278731;19;20011;-60
2022/10/30 02:27:24;;;;;;;6.60;2.00;;;;;;;15.85;100.00;98631.72;15274529;19;20019;-61
2022/10/30 02:32:52;;;;;;;10.60;2.20;;;;;;;15.79;100.00;98633.31;15272746;19;20029;-57
2022/10/30 02:38:19;;;;;;;7.28;2.30;;;;;;;15.68;100.00;98645.50;15272367;19;20015;-59
2022/10/30 02:43:45;;;;;;;5.90;2.35;;;;;;;15.61;100.00;98630.97;15274830;19;20014;-60
2022/10/30 02:49:10;;;;;;;6.47;2.50;;;;;;;15.64;100.00;98624.34;15266010;19;20082;-59
2022/10/30 02:54:37;;;;;;;5.95;2.40;;;;;;;15.60;100.00;98628.47;15275744;19;20762;-61
2022/10/30 03:00:02;;;;;;;6.43;2.20;;;;;;;15.59;100.00;98624.91;15273537;19;20025;-58
2022/10/30 03:05:26;;;;;;;7.22;2.42;;;;;;;15.55;100.00;98629.88;15273667;19;20010;-60
2022/10/30 03:10:53;;;;;;;6.45;2.72;;;;;;;15.52;100.00;98626.69;15271951;19;20022;-59
2022/10/30 03:16:20;;;;;;;8.00;2.55;;;;;;;15.47;100.00;98624.53;15271971;19;20015;-61
2022/10/30 03:21:45;;;;;;;7.60;2.38;;;;;;;15.48;100.00;98622.66;15268130;19;20007;-57
2022/10/30 03:27:12;;;;;;;8.10;2.00;;;;;;;15.49;100.00;98618.91;15271652;19;20014;-57
2022/10/30 03:32:37;;;;;;;6.93;2.85;;;;;;;15.50;100.00;98615.16;15270867;19;20026;-61
2022/10/30 03:38:03;;;;;;;6.88;2.20;;;;;;;15.49;100.00;98614.34;15269495;19;20036;-56
2022/10/30 03:43:31;;;;;;;6.10;2.33;;;;;;;15.49;100.00;98611.63;15268279;19;20031;-60
2022/10/30 03:48:57;;;;;;;7.88;2.22;;;;;;;15.46;100.00;98613.88;15269529;19;20018;-60
2022/10/30 03:54:22;;;;;;;5.43;2.13;;;;;;;15.45;100.00;98612.19;15266636;19;20027;-59
2022/10/30 03:59:49;;;;;;;6.95;2.30;;;;;;;15.47;100.00;98605.53;15268532;19;20014;-60
2022/10/30 04:05:25;;;;;;;7.13;2.22;;;;;;;15.46;100.00;98608.44;15271672;19;20479;-61
2022/10/30 04:10:56;;;;;;;8.18;2.42;;;;;;;15.34;100.00;98616.22;15263563;19;20605;-60
2022/10/30 04:16:24;;;;;;;7.07;2.38;;;;;;;15.20;100.00;98615.19;15267633;19;20821;-57
2022/10/30 04:21:50;;;;;;;8.70;2.60;;;;;;;15.18;100.00;98617.25;15268587;19;20085;-59
2022/10/30 04:27:16;;;;;;;8.38;2.33;;;;;;;15.22;100.00;98615.84;15264134;19;20493;-59
2022/10/30 04:32:43;;;;;;;5.93;2.55;;;;;;;15.29;100.00;98605.91;15264687;19;20086;-57
2022/10/30 04:38:09;;;;;;;6.28;2.42;;;;;;;15.32;100.00;98599.25;15265973;19;20037;-59
2022/10/30 04:43:34;;;;;;;8.20;2.55;;;;;;;15.36;100.00;98593.28;15266814;19;20388;-59
2022/10/30 04:49:01;;;;;;;7.88;2.70;;;;;;;15.39;100.00;98592.91;15262504;19;20026;-59
2022/10/30 04:54:27;;;;;;;7.38;2.22;;;;;;;15.41;100.00;98596.28;15261965;19;20849;-58
2022/10/30 04:59:52;;;;;;;6.32;2.30;;;;;;;15.43;100.00;98593.34;15262666;19;20019;-58
2022/10/30 05:05:19;;;;;;;7.80;2.20;;;;;;;15.47;100.00;98589.25;15262882;19;20713;-59
2022/10/30 05:10:44;;;;;;;7.63;2.40;;;;;;;15.53;100.00;98590.38;15260050;19;20011;-59
2022/10/30 05:16:08;;;;;;;5.00;2.10;;;;;;;15.63;100.00;98598.22;15261962;19;20024;-59
2022/10/30 05:21:37;;;;;;;6.13;2.03;;;;;;;15.67;100.00;98594.94;15266543;19;20044;-56
2022/10/30 05:27:01;;;;;;;5.47;2.10;;;;;;;15.72;100.00;98589.75;15277185;19;20461;-59
2022/10/30 05:32:26;;;;;;;6.00;2.20;;;;;;;15.70;100.00;98593.72;15271466;19;20485;-59
2022/10/30 05:37:53;;;;;;;6.70;2.20;;;;;;;15.76;100.00;98592.94;15276192;19;20089;-59
2022/10/30 05:43:18;;;;;;;5.85;2.20;;;;;;;15.76;100.00;98594.81;15281303;19;20378;-58
2022/10/30 05:48:43;;;;;;;4.05;1.98;;;;;;;15.74;100.00;98592.31;15273456;19;20029;-56
2022/10/30 05:54:11;;;;;;;8.98;2.50;;;;;;;15.74;100.00;98595.03;15272383;19;20487;-58
2022/10/30 05:59:58;;;;;;;7.73;2.60;;;;;;;15.71;100.00;98606.25;15278482;19;20085;-60
2022/10/30 06:05:25;;;;;;;8.95;2.85;;;;;;;15.67;100.00;98603.09;15274864;19;20021;-56
2022/10/30 06:10:52;;;;;;;9.38;3.00;;;;;;;15.66;100.00;98604.13;15276457;19;20022;-60
2022/10/30 06:16:23;;;;;;;9.68;2.25;;;;;;;15.68;100.00;98602.06;14765313;19;10000115;-57
2022/10/30 06:22:09;;;;;;;6.65;2.35;;;;;;;15.71;100.00;98606.25;15272491;19;20014;-58
2022/10/30 06:27:44;;;;;;;7.00;2.08;;;;;;;15.70;100.00;98618.97;15270948;19;20025;-59
2022/10/30 06:33:11;;;;;;;9.32;2.35;;;;;;;15.70;100.00;98627.13;15262543;19;20030;-58
2022/10/30 06:38:36;;;;;;;5.65;2.10;;;;;;;15.73;100.00;98617.78;15271739;19;20015;-57
2022/10/30 06:44:05;;;;;;;5.80;2.00;;;;;;;15.75;100.00;98620.28;15273998;19;20014;-58
2022/10/30 06:49:30;;;;;;;7.57;2.20;;;;;;;15.79;100.00;98625.16;15270383;19;20228;-58
2022/10/30 06:54:55;;;;;;;5.95;2.03;;;;;;;15.79;100.00;98625.16;15269361;19;20021;-59
2022/10/30 07:00:31;;;;;;;7.45;2.15;;;;;;;15.78;100.00;98631.63;15273046;19;20027;-57
2022/10/30 07:06:22;;;;;;;5.80;1.92;;;;;;;15.77;100.00;98631.81;15266005;19;20066;-59
2022/10/30 07:11:47;;;;;;;6.22;2.15;;;;;;;15.71;100.00;98639.69;15268623;19;20464;-58
2022/10/30 07:17:48;;;;;;;4.80;1.85;;;;;;;15.68;100.00;98650.09;15270968;19;20013;-58
2022/10/30 07:23:15;;;;;;;8.48;2.33;;;;;;;15.69;100.00;98658.06;15271900;19;20020;-60
2022/10/30 07:28:50;;;;;;;7.65;2.10;;;;;;;15.70;100.00;98657.00;15266526;19;20488;-56
2022/10/30 07:34:33;;;;;;;7.93;2.00;;;;;;;15.74;100.00;98656.63;15268939;19;20010;-62
2022/10/30 07:40:17;;;;;;;6.07;2.15;;;;;;;15.77;100.00;98657.09;15266425;19;20009;-59
2022/10/30 07:45:50;;;;;;;7.47;2.08;;;;;;;15.82;100.00;98660.09;15270265;19;20022;-58
2022/10/30 07:51:36;;;;;;;6.05;2.00;;;;;;;15.95;100.00;98662.16;15271421;19;20018;-61
2022/10/30 07:57:02;;;;;;;12.70;2.40;;;;;;;16.01;100.00;98666.84;15269941;19;20044;-60
2022/10/30 08:02:57;;;;;;;6.43;2.15;;;;;;;16.04;100.00;98664.78;15271163;19;20016;-58
2022/10/30 08:08:31;;;;;;;9.07;2.20;;;;;;;16.07;100.00;98664.38;15265475;19;20064;-57
2022/10/30 08:14:07;;;;;;;5.05;1.88;;;;;;;16.05;100.00;98677.34;15262740;19;20010;-60
2022/10/30 08:19:32;;;;;;;6.70;2.20;;;;;;;16.11;100.00;98674.69;15262243;19;20548;-60
2022/10/30 08:25:06;;;;;;;6.43;2.33;;;;;;;16.18;100.00;98674.75;15262030;19;20039;-59
2022/10/30 08:30:34;;;;;;;7.32;2.20;;;;;;;16.25;100.00;98678.41;15266662;19;20031;-58
2022/10/30 08:36:06;;;;;;;9.10;2.30;;;;;;;16.27;100.00;98675.50;15265444;19;20773;-60
2022/10/30 08:41:34;;;;;;;7.22;2.20;;;;;;;16.32;100.00;98679.31;15265846;19;20022;-60
2022/10/30 08:46:58;;;;;;;6.70;2.30;;;;;;;16.38;100.00;98671.44;15260306;19;20468;-59
2022/10/30 08:52:23;;;;;;;4.88;2.00;;;;;;;16.50;100.00;98680.78;15263648;19;20109;-59
2022/10/30 08:57:50;;;;;;;7.43;2.30;;;;;;;16.59;100.00;98679.59;15265384;19;20018;-60
2022/10/30 09:03:15;;;;;;;5.95;2.10;;;;;;;16.69;100.00;98673.84;15274447;19;20591;-60
2022/10/30 09:09:16;;;;;;;7.72;2.30;;;;;;;16.78;100.00;98678.13;15270017;19;20022;-60
2022/10/30 09:14:47;;;;;;;4.47;2.00;;;;;;;16.97;100.00;98670.34;15269309;19;20522;-60
2022/10/30 09:20:14;;;;;;;4.65;1.90;;;;;;;17.23;100.00;98675.16;15277456;19;20302;-60
2022/10/30 09:25:39;;;;;;;8.70;2.20;;;;;;;17.40;100.00;98672.13;15277452;19;20043;-60
2022/10/30 09:31:25;;;;;;;6.00;1.95;;;;;;;17.62;100.00;98669.31;15275824;19;20026;-61
2022/10/30 09:36:52;;;;;;;7.10;2.40;;;;;;;17.80;100.00;98674.25;15273270;19;20011;-58
2022/10/30 09:42:42;;;;;;;7.55;2.47;;;;;;;18.01;100.00;98676.06;15272567;19;20014;-59
2022/10/30 09:48:32;;;;;;;5.80;2.10;;;;;;;18.23;100.00;98675.91;15265060;19;20401;-58
2022/10/30 09:54:14;;;;;;;7.78;2.10;;;;;;;18.50;100.00;98676.00;15273819;19;20014;-58
2022/10/30 09:59:50;;;;;;;7.50;2.45;;;;;;;18.67;100.00;98681.91;15270207;19;20053;-60
2022/10/30 10:05:32;;;;;;;9.07;2.00;;;;;;;18.90;100.00;98684.22;15277920;19;20575;-61
2022/10/30 10:11:24;;;;;;;5.60;1.90;;;;;;;19.12;100.00;98681.31;15272869;19;20401;-58
2022/10/30 10:16:59;;;;;;;6.97;2.03;;;;;;;19.28;100.00;98680.91;15274989;19;20283;-56
2022/10/30 10:22:38;;;;;;;6.85;2.05;;;;;;;19.43;100.00;98675.19;15271096;19;20086;-57
2022/10/30 10:28:17;;;;;;;6.53;2.10;;;;;;;19.65;100.00;98675.78;15275587;19;20010;-59
2022/10/30 10:34:03;;;;;;;6.00;2.08;;;;;;;19.86;100.00;98671.13;15275389;19;20021;-58
2022/10/30 10:39:42;;;;;;;6.38;2.05;;;;;;;20.04;100.00;98655.94;15270206;19;20487;-55
2022/10/30 10:45:20;;;;;;;7.35;2.13;;;;;;;20.20;100.00;98663.63;15266162;19;20049;-58
2022/10/30 10:50:50;;;;;;;5.97;2.00;;;;;;;20.28;100.00;98649.72;15271543;19;20503;-61
2022/10/30 10:56:19;;;;;;;4.72;1.70;;;;;;;20.39;100.00;98642.69;15272592;19;20029;-55
2022/10/30 11:01:51;;;;;;;6.18;2.33;;;;;;;20.48;100.00;98635.88;15273467;19;20014;-55
2022/10/30 11:07:26;;;;;;;7.97;2.00;;;;;;;20.61;100.00;98629.50;15272714;19;20014;-58
2022/10/30 11:12:54;;;;;;;5.57;2.10;;;;;;;20.70;100.00;98631.97;15269684;19;20353;-57
2022/10/30 11:18:18;;;;;;;7.35;2.13;;;;;;;20.85;100.00;98637.13;15269234;19;20522;-59
2022/10/30 11:23:45;;;;;;;5.68;2.00;;;;;;;20.98;100.00;98622.50;15266744;19;20033;-56
2022/10/30 11:29:27;;;;;;;5.88;2.33;;;;;;;21.11;100.00;98622.34;15270491;19;20019;-57
2022/10/30 11:35:03;;;;;;;7.10;2.45;;;;;;;21.20;100.00;98623.78;15267697;19;20018;-63
2022/10/30 11:40:32;;;;;;;6.25;2.22;;;;;;;21.37;100.00;98610.31;15271631;19;20014;-66
2022/10/30 11:46:00;;;;;;;7.55;1.98;;;;;;;21.44;100.00;98599.28;15271048;19;20085;-57
2022/10/30 11:51:39;;;;;;;5.97;2.15;;;;;;;21.55;100.00;98605.88;15271604;19;20031;-55
2022/10/30 11:57:04;;;;;;;6.18;2.25;;;;;;;21.59;100.00;98607.16;15267750;19;20019;-56
2022/10/30 12:02:34;;;;;;;6.50;2.03;;;;;;;21.63;100.00;98605.63;15272483;19;20014;-58
2022/10/30 12:08:18;;;;;;;6.80;2.22;;;;;;;21.77;100.00;98598.06;15267149;19;20673;-58
2022/10/30 12:13:51;;;;;;;6.78;2.50;;;;;;;21.92;100.00;98594.09;15269620;19;20017;-62
2022/10/30 12:19:21;;;;;;;8.20;2.83;;;;;;;22.01;100.00;98588.03;15263668;19;20014;-58
2022/10/30 12:24:48;;;;;;;8.35;2.72;;;;;;;22.20;100.00;98585.28;15266104;19;20035;-57
2022/10/30 12:30:20;;;;;;;6.80;2.30;;;;;;;22.38;100.00;98587.13;15260062;19;20612;-61
2022/10/30 12:35:53;;;;;;;6.45;2.30;;;;;;;22.50;100.00;98583.59;15262485;19;20037;-60
2022/10/30 12:41:26;;;;;;;7.70;2.08;;;;;;;22.69;100.00;98581.59;15267068;19;20542;-60
2022/10/30 12:46:54;;;;;;;7.07;2.10;;;;;;;22.84;100.00;98578.41;15262737;19;20018;-57
2022/10/30 12:52:24;;;;;;;6.47;1.83;;;;;;;22.96;100.00;98579.22;15265701;19;20025;-58
2022/10/30 12:57:55;;;;;;;7.97;2.13;;;;;;;23.11;100.00;98577.94;15263242;19;20019;-58
2022/10/30 13:03:29;;;;;;;6.50;2.00;;;;;;;23.32;100.00;98571.00;15258927;19;20078;-60
2022/10/30 13:09:17;;;;;;;6.50;2.20;;;;;;;23.49;100.00;98569.19;15261826;19;20031;-56
2022/10/30 13:14:47;;;;;;;7.22;2.08;;;;;;;23.65;100.00;98564.84;15263452;19;20381;-60
2022/10/30 13:20:20;;;;;;;5.00;1.90;;;;;;;23.74;100.00;98567.19;15266947;19;20021;-64
2022/10/30 13:25:59;;;;;;;5.55;1.92;;;;;;;23.86;100.00;98573.50;15264042;19;20045;-60
2022/10/30 13:31:33;;;;;;;5.20;1.83;;;;;;;23.89;100.00;98575.75;15269862;19;20010;-59
2022/10/30 13:37:04;;;;;;;6.70;2.20;;;;;;;24.03;100.00;98562.56;15254503;19;20011;-58
2022/10/30 13:42:49;;;;;;;6.68;2.05;;;;;;;24.16;100.00;98555.94;15264258;19;20026;-56
2022/10/30 13:48:23;;;;;;;4.40;1.70;;;;;;;24.37;100.00;98561.81;15275850;19;20026;-62
2022/10/30 13:53:55;;;;;;;4.53;1.85;;;;;;;24.43;100.00;98558.06;15273628;19;20408;-58
2022/10/30 13:59:28;;;;;;;;;;;;;;;24.64;100.00;98555.66;15270368;19;20019;-56
2022/10/30 14:05:03;;;;;;;6.30;1.95;;;;;;;24.78;100.00;98559.75;15275590;19;19932;-62
2022/10/30 14:10:52;;;;;;;6.25;2.10;;;;;;;25.02;100.00;98559.56;15275772;19;20021;-57
2022/10/30 14:16:41;;;;;;;7.25;2.03;;;;;;;25.14;100.00;98554.78;15268452;19;20029;-60
2022/10/30 14:22:06;;;;;;;7.20;2.10;;;;;;;25.30;100.00;98557.78;15275153;19;20761;-54
2022/10/30 14:27:32;;;;;;;7.28;2.22;;;;;;;25.35;100.00;98546.81;15273403;19;20029;-54
2022/10/30 14:32:54;;;;;;;4.45;1.80;;;;;;;25.39;100.00;98543.31;15276504;19;20029;-59
2022/10/30 14:38:44;;;;;;;5.63;1.80;;;;;;;25.43;100.00;98553.84;15263517;19;20057;-59
2022/10/30 14:44:27;;;;;;;;;;;;;;;25.33;97.88;98551.75;15275089;19;20040;-55
2022/10/30 14:50:06;;;;;;;6.95;2.13;;;;;;;25.32;100.00;98544.56;15272197;19;20404;-65
2022/10/30 14:55:36;;;;;;;5.72;1.83;;;;;;;25.27;100.00;98552.75;15270454;19;20011;-59
2022/10/30 15:01:30;;;;;;;7.27;1.87;;;;;;;25.12;100.00;98550.63;15273764;19;20365;-60
2022/10/30 15:07:07;;;;;;;6.53;1.85;;;;;;;24.89;100.00;98552.50;15272136;19;20011;-57
2022/10/30 15:12:42;;;;;;;7.18;1.85;;;;;;;24.60;100.00;98550.66;15267326;19;20489;-54
2022/10/30 15:18:11;;;;;;;7.68;1.92;;;;;;;24.37;100.00;98546.13;15270153;19;20343;-59
2022/10/30 15:23:42;;;;;;;8.52;2.20;;;;;;;24.10;100.00;98545.91;15269618;19;20031;-60
2022/10/30 15:29:08;;;;;;;8.15;2.10;;;;;;;23.83;100.00;98550.06;15265270;19;20033;-61
2022/10/30 15:34:35;;;;;;;6.45;2.20;;;;;;;23.38;100.00;98551.63;15268016;19;20022;-57
2022/10/30 15:40:19;;;;;;;5.90;2.05;;;;;;;23.02;100.00;98550.78;15271429;19;20036;-57
2022/10/30 15:45:52;;;;;;;5.38;1.60;;;;;;;22.63;100.00;98555.94;15265496;19;20021;-57
2022/10/30 15:51:19;;;;;;;6.13;2.05;;;;;;;22.34;100.00;98558.47;15271568;19;20049;-59
2022/10/30 15:56:50;;;;;;;7.32;2.10;;;;;;;22.17;100.00;98559.13;15270019;19;20029;-61
2022/10/30 16:02:36;;;;;;;7.53;2.22;;;;;;;22.02;100.00;98553.25;15266552;19;20364;-62
2022/10/30 16:08:04;;;;;;;9.10;2.50;;;;;;;21.87;100.00;98548.19;15257707;19;20029;-62
2022/10/30 16:13:39;;;;;;;9.50;3.25;;;;;;;21.71;100.00;98549.63;15267056;19;20792;-56
2022/10/30 16:19:06;;;;;;;7.20;2.13;;;;;;;21.55;100.00;98556.53;15263368;19;20018;-58
2022/10/30 16:24:37;;;;;;;6.57;2.33;;;;;;;21.42;100.00;98562.19;15266314;19;20018;-60
2022/10/30 16:30:04;;;;;;;6.10;2.38;;;;;;;21.27;100.00;98560.69;15269173;19;20023;-57
2022/10/30 16:35:31;;;;;;;6.53;2.28;;;;;;;21.10;100.00;98563.19;15266543;19;20327;-61
2022/10/30 16:40:56;;;;;;;7.35;2.40;;;;;;;20.93;100.00;98566.50;15268334;19;20026;-58
2022/10/30 16:46:46;;;;;;;5.25;1.98;;;;;;;20.78;100.00;98569.59;15262506;19;20089;-56
2022/10/30 16:52:15;;;;;;;5.07;2.17;;;;;;;20.62;100.00;98570.97;15266741;19;20074;-57
2022/10/30 16:57:41;;;;;;;5.93;1.90;;;;;;;20.48;100.00;98578.41;15261749;19;20374;-56
2022/10/30 17:03:12;;;;;;;6.30;2.05;;;;;;;20.30;100.00;98583.81;15243442;19;20040;-52
2022/10/30 17:08:43;;;;;;;5.75;1.80;;;;;;;20.11;100.00;98582.88;15263832;19;20383;-50
2022/10/30 17:14:26;;;;;;;5.70;1.95;;;;;;;19.92;100.00;98591.00;15262158;19;20820;-54
2022/10/30 17:19:58;;;;;;;6.75;2.10;;;;;;;19.77;100.00;98588.47;15261876;19;20022;-59
2022/10/30 17:25:26;;;;;;;7.55;2.00;;;;;;;19.66;100.00;98597.34;15280285;19;20022;-58
2022/10/30 17:30:50;;;;;;;5.20;2.03;;;;;;;19.54;100.00;98602.66;15282386;19;20032;-58
2022/10/30 17:36:18;;;;;;;5.78;1.70;;;;;;;19.47;100.00;98599.09;15279322;19;20483;-56
2022/10/30 17:41:45;;;;;;;5.28;1.80;;;;;;;19.34;100.00;98600.84;15277988;19;20021;-57
2022/10/30 17:47:16;;;;;;;6.80;1.80;;;;;;;19.13;100.00;98606.53;15276773;19;20510;-60
2022/10/30 17:52:43;;;;;;;3.72;1.60;;;;;;;18.95;100.00;98605.31;15272624;19;20011;-56
2022/10/30 17:58:08;;;;;;;5.55;1.65;;;;;;;18.79;100.00;98607.38;15274263;19;20014;-59
2022/10/30 18:03:34;;;;;;;5.05;1.77;;;;;;;18.58;100.00;98613.88;15279099;19;20017;-59
2022/10/30 18:09:02;;;;;;;5.70;2.28;;;;;;;18.45;100.00;98611.16;15268043;19;20531;-64
2022/10/30 18:14:33;;;;;;;5.75;2.00;;;;;;;18.26;100.00;98610.06;15275721;19;20018;-54
2022/10/30 18:19:57;;;;;;;6.15;1.92;;;;;;;18.15;100.00;98611.50;15275577;19;20046;-61
2022/10/30 18:25:30;;;;;;;5.72;1.98;;;;;;;17.96;100.00;98619.38;15272500;19;20048;-56
2022/10/30 18:30:57;;;;;;;7.00;2.15;;;;;;;17.84;100.00;98630.03;15275386;19;20025;-57
2022/10/30 18:36:23;;;;;;;4.38;1.92;;;;;;;17.75;100.00;98627.69;15273861;19;20018;-57
2022/10/30 18:41:50;;;;;;;6.30;1.75;;;;;;;17.63;100.00;98625.56;15276037;19;20014;-52
2022/10/30 18:47:19;;;;;;;5.70;1.90;;;;;;;17.54;100.00;98626.72;15276388;19;20027;-55
2022/10/30 18:52:45;;;;;;;6.80;3.38;;;;;;;17.43;100.00;98621.84;15274918;19;20016;-56
2022/10/30 18:58:15;;;;;;;3.47;1.73;;;;;;;17.36;100.00;98628.13;15268777;19;20014;-58
2022/10/30 19:03:39;;;;;;;6.82;2.00;;;;;;;17.29;100.00;98627.22;15273671;19;20055;-57
2022/10/30 19:09:04;;;;;;;7.15;1.88;;;;;;;17.22;100.00;98620.91;15268963;19;20036;-61
2022/10/30 19:14:38;;;;;;;5.07;1.80;;;;;;;17.17;100.00;98629.66;15268843;19;20029;-60
2022/10/30 19:20:02;;;;;;;4.22;1.60;;;;;;;17.09;100.00;98627.09;15272928;19;20015;-56
2022/10/30 19:25:30;;;;;;;4.88;1.60;;;;;;;17.03;100.00;98636.06;15271317;19;20718;-55
2022/10/30 19:30:57;;;;;;;3.97;1.52;;;;;;;16.96;100.00;98641.44;15264988;19;20028;-57
2022/10/30 19:36:35;;;;;;;5.30;1.70;;;;;;;16.89;100.00;98640.53;15269739;19;20106;-57
2022/10/30 19:41:59;;;;;;;3.88;1.60;;;;;;;16.82;100.00;98640.47;15269470;19;20025;-56
2022/10/30 19:47:27;;;;;;;4.68;1.70;;;;;;;16.74;100.00;98640.63;15266608;19;20023;-56
2022/10/30 19:52:53;;;;;;;4.85;1.70;;;;;;;16.65;100.00;98639.91;15268333;19;20476;-59
2022/10/30 19:58:20;;;;;;;6.30;1.73;;;;;;;16.57;100.00;98653.66;15267226;19;20014;-58
2022/10/30 20:03:47;;;;;;;4.65;1.60;;;;;;;16.52;100.00;98651.50;15262786;19;20381;-54
2022/10/30 20:09:11;;;;;;;5.90;1.73;;;;;;;16.46;100.00;98660.44;15266252;19;20049;-59
2022/10/30 20:14:42;;;;;;;6.70;1.63;;;;;;;16.38;100.00;98661.41;15262688;19;20033;-60
2022/10/30 20:20:15;;;;;;;4.95;1.75;;;;;;;16.31;100.00;98655.88;15269169;19;20480;-60
2022/10/30 20:25:40;;;;;;;5.53;1.70;;;;;;;16.25;100.00;98659.38;15266826;19;20044;-60
2022/10/30 20:31:05;;;;;;;3.95;1.40;;;;;;;16.15;100.00;98669.72;15266858;19;20035;-61
2022/10/30 20:36:33;;;;;;;6.40;1.80;;;;;;;16.04;100.00;98676.50;15256109;19;20010;-59
2022/10/30 20:41:59;;;;;;;5.18;1.73;;;;;;;15.94;100.00;98678.66;15262913;19;20039;-60
2022/10/30 20:47:23;;;;;;;5.50;2.03;;;;;;;15.84;100.00;98679.81;15174761;19;20031;-61
2022/10/30 20:52:52;;;;;;;6.43;1.70;;;;;;;15.77;100.00;98675.28;15266454;19;20022;-59
2022/10/30 20:58:16;;;;;;;5.22;1.80;;;;;;;15.70;100.00;98681.44;15277184;19;20511;-59
2022/10/30 21:03:40;;;;;;;4.65;1.70;;;;;;;15.62;100.00;98689.69;15276709;19;20010;-59
2022/10/30 21:09:08;;;;;;;6.60;1.75;;;;;;;15.60;100.00;98694.47;15270851;19;20019;-57
2022/10/30 21:14:39;;;;;;;4.38;1.90;;;;;;;15.59;100.00;98692.78;15271269;19;20025;-59
2022/10/30 21:20:04;;;;;;;3.90;1.75;;;;;;;15.57;100.00;98708.44;15280524;19;20379;-59
2022/10/30 21:25:31;;;;;;;4.07;1.70;;;;;;;15.51;100.00;98699.19;14768260;19;10001435;-57
2022/10/30 21:30:56;;;;;;;6.18;1.75;;;;;;;15.44;100.00;98692.78;15280248;19;20022;-59
2022/10/30 21:36:22;;;;;;;4.70;1.70;;;;;;;15.38;100.00;98694.38;15276485;19;20039;-59
2022/10/30 21:41:50;;;;;;;5.50;1.85;;;;;;;15.33;100.00;98696.81;15278681;19;20029;-58
2022/10/30 21:47:15;;;;;;;3.17;1.48;;;;;;;15.27;100.00;98694.00;15277295;19;20022;-60
2022/10/30 21:52:39;;;;;;;4.30;1.50;;;;;;;15.24;100.00;98697.91;15278112;19;20031;-58
2022/10/30 21:58:07;;;;;;;5.05;1.50;;;;;;;15.21;100.00;98707.28;15274480;19;20026;-58
2022/10/30 22:03:32;;;;;;;4.25;1.63;;;;;;;15.19;100.00;98695.75;15277917;19;20372;-59
2022/10/30 22:08:58;;;;;;;4.40;1.55;;;;;;;15.15;100.00;98699.88;15268757;19;20025;-60
2022/10/30 22:14:32;;;;;;;4.57;1.90;;;;;;;15.14;100.00;98692.75;15273087;19;20010;-60
2022/10/30 22:19:57;;;;;;;6.18;1.70;;;;;;;15.10;100.00;98699.56;15279543;19;20086;-59
2022/10/30 22:25:22;;;;;;;5.30;1.70;;;;;;;15.06;100.00;98699.09;15274215;19;20390;-59
2022/10/30 22:30:49;;;;;;;3.78;1.50;;;;;;;15.04;100.00;98700.31;15276230;19;21225;-59
2022/10/30 22:36:16;;;;;;;6.13;1.80;;;;;;;15.00;100.00;98701.69;15275875;19;20018;-58
2022/10/30 22:41:42;;;;;;;4.35;1.75;;;;;;;14.97;100.00;98707.47;15270986;19;20030;-60
2022/10/30 22:47:09;;;;;;;4.60;1.88;;;;;;;14.93;100.00;98705.13;15272943;19;20130;-58
2022/10/30 22:52:34;;;;;;;4.57;1.52;;;;;;;14.86;100.00;98706.91;15274012;19;20026;-56
2022/10/30 22:58:01;;;;;;;3.38;1.70;;;;;;;14.75;100.00;98716.31;15270528;19;20025;-59
2022/10/30 23:03:28;;;;;;;4.75;2.00;;;;;;;14.67;100.00;98718.22;15271354;19;20511;-57
2022/10/30 23:08:53;;;;;;;6.10;1.92;;;;;;;14.54;100.00;98722.38;15270918;19;20014;-54
2022/10/30 23:14:24;;;;;;;2.80;1.85;;;;;;;14.45;100.00;98731.56;15265111;19;20031;-57
2022/10/30 23:19:52;;;;;;;5.47;1.90;;;;;;;14.30;100.00;98729.63;15270127;19;20026;-59
2022/10/30 23:25:17;;;;;;;5.90;2.10;;;;;;;14.13;100.00;98731.56;15271729;19;20267;-57
2022/10/30 23:30:43;;;;;;;5.82;1.80;;;;;;;14.01;100.00;98730.28;15273613;19;20031;-59
2022/10/30 23:36:12;;;;;;;4.65;2.08;;;;;;;13.87;100.00;98740.81;15271927;19;20325;-58
2022/10/30 23:41:37;;;;;;;4.38;2.05;;;;;;;13.74;100.00;98740.50;15272325;19;20033;-59
2022/10/30 23:47:01;;;;;;;5.72;2.40;;;;;;;13.63;100.00;98746.28;15267173;19;20552;-58
2022/10/30 23:52:28;;;;;;;4.50;2.08;;;;;;;13.54;100.00;98748.16;15271861;19;20049;-59
2022/10/30 23:57:55;;;;;;;5.38;2.03;;;;;;;13.43;100.00;98749.41;15268790;19;20025;-59
